createdAt,value
2023-03-07T00:02:51.592Z,24.60
2023-03-07T00:07:54.493Z,21.00
2023-03-07T00:12:58.635Z,26.80
2023-03-07T00:18:01.327Z,26.60
2023-03-07T00:23:04.831Z,20.00
2023-03-07T00:28:08.836Z,24.00
2023-03-07T00:33:11.595Z,23.40
2023-03-07T00:38:14.265Z,19.80
2023-03-07T00:43:18.397Z,20.00
2023-03-07T00:48:23.279Z,22.80
2023-03-07T00:53:26.614Z,21.75
2023-03-07T00:58:33.002Z,20.50
2023-03-07T01:03:36.327Z,20.25
2023-03-07T01:08:39.071Z,19.50
2023-03-07T01:13:43.426Z,21.25
2023-03-07T01:18:49.288Z,19.25
2023-03-07T01:23:52.479Z,20.25
2023-03-07T01:28:58.491Z,21.00
2023-03-07T01:34:02.300Z,19.00
2023-03-07T01:39:10.366Z,25.00
2023-03-07T01:44:19.639Z,18.25
2023-03-07T01:49:27.834Z,21.00
2023-03-07T01:54:38.082Z,15.25
2023-03-07T01:59:46.598Z,18.00
2023-03-07T02:04:54.852Z,17.50
2023-03-07T02:09:59.310Z,16.50
2023-03-07T02:15:04.999Z,17.25
2023-03-07T02:20:23.202Z,18.50
2023-03-07T02:25:33.702Z,16.00
2023-03-07T02:30:39.167Z,17.25
2023-03-07T02:35:42.106Z,16.00
2023-03-07T02:40:45.365Z,16.00
2023-03-07T02:45:49.464Z,13.75
2023-03-07T02:50:52.502Z,16.00
2023-03-07T02:55:55.385Z,13.50
2023-03-07T03:01:00.050Z,15.50
2023-03-07T03:06:02.799Z,13.75
2023-03-07T03:11:06.252Z,15.50
2023-03-07T03:16:12.714Z,15.75
2023-03-07T03:21:15.915Z,13.50
2023-03-07T03:26:18.813Z,16.00
2023-03-07T03:31:23.242Z,13.50
2023-03-07T03:36:27.373Z,13.25
2023-03-07T03:41:35.880Z,13.00
2023-03-07T03:46:40.117Z,11.75
2023-03-07T03:51:43.376Z,15.00
2023-03-07T03:56:46.420Z,12.25
2023-03-07T04:01:50.630Z,12.67
2023-03-07T04:06:54.921Z,15.75
2023-03-07T04:11:57.765Z,14.50
2023-03-07T04:17:01.921Z,13.50
2023-03-07T04:22:05.117Z,12.75
2023-03-07T04:27:08.287Z,11.75
2023-03-07T04:32:14.033Z,11.25
2023-03-07T04:37:16.937Z,14.00
2023-03-07T04:42:19.945Z,14.50
2023-03-07T04:47:24.048Z,12.00
2023-03-07T04:52:26.818Z,14.00
2023-03-07T04:57:30.967Z,10.00
2023-03-07T05:02:35.914Z,11.00
2023-03-07T05:07:39.244Z,10.75
2023-03-07T05:12:42.589Z,11.75
2023-03-07T05:17:48.802Z,11.00
2023-03-07T05:22:51.921Z,12.00
2023-03-07T05:27:54.817Z,10.75
2023-03-07T05:32:58.965Z,11.00
2023-03-07T05:38:02.057Z,12.75
2023-03-07T05:43:07.161Z,9.50
2023-03-07T05:48:12.111Z,9.25
2023-03-07T05:53:15.015Z,8.25
2023-03-07T05:58:17.871Z,9.00
2023-03-07T06:03:23.809Z,9.50
2023-03-07T06:08:26.699Z,9.75
2023-03-07T06:13:31.117Z,7.25
2023-03-07T06:18:35.298Z,11.50
2023-03-07T06:23:38.265Z,10.75
2023-03-07T06:28:46.192Z,7.75
2023-03-07T06:33:52.560Z,8.25
2023-03-07T06:38:56.302Z,8.50
2023-03-07T06:44:00.508Z,7.75
2023-03-07T06:49:07.749Z,8.25
2023-03-07T06:54:11.562Z,8.25
2023-03-07T06:59:15.893Z,6.00
2023-03-07T07:04:20.014Z,7.00
2023-03-07T07:09:24.413Z,8.00
2023-03-07T07:14:27.392Z,7.00
2023-03-07T07:19:31.876Z,8.00
2023-03-07T07:24:35.399Z,7.00
2023-03-07T07:29:38.166Z,7.00
2023-03-07T07:34:42.732Z,6.25
2023-03-07T07:39:45.996Z,7.50
2023-03-07T07:44:49.059Z,8.00
2023-03-07T07:49:53.448Z,7.75
2023-03-07T07:54:56.514Z,7.00
2023-03-07T08:00:00.303Z,7.50
2023-03-07T08:05:08.296Z,6.25
2023-03-07T08:10:15.649Z,7.50
2023-03-07T08:15:21.436Z,7.50
2023-03-07T08:20:25.672Z,9.25
2023-03-07T08:25:28.431Z,7.00
2023-03-07T08:30:33.393Z,6.50
2023-03-07T08:35:37.439Z,4.00
2023-03-07T08:40:40.415Z,5.00
2023-03-07T08:45:43.201Z,2.50
2023-03-07T08:50:48.168Z,4.00
2023-03-07T08:55:50.924Z,3.00
2023-03-07T09:00:53.753Z,2.25
2023-03-07T09:05:57.943Z,2.25
2023-03-07T09:11:03.400Z,2.25
2023-03-07T09:16:07.073Z,1.00
2023-03-07T09:21:11.142Z,1.00
2023-03-07T09:26:14.125Z,2.25
2023-03-07T09:31:17.582Z,3.00
2023-03-07T09:36:21.796Z,2.00
2023-03-07T09:41:43.650Z,2.75
2023-03-07T09:47:03.263Z,6.75
2023-03-07T09:52:15.125Z,3.00
2023-03-07T09:57:24.000Z,1.75
2023-03-07T10:02:30.575Z,2.25
2023-03-07T10:07:36.580Z,1.00
2023-03-07T10:13:02.797Z,2.00
2023-03-07T10:18:16.183Z,1.00
2023-03-07T10:23:33.029Z,1.50
2023-03-07T10:28:40.711Z,3.00
2023-03-07T10:33:47.414Z,2.00
2023-03-07T10:39:02.654Z,1.75
2023-03-07T10:44:05.507Z,3.00
2023-03-07T10:49:13.948Z,3.75
2023-03-07T10:54:22.045Z,3.00
2023-03-07T10:59:26.339Z,1.00
2023-03-07T11:04:43.372Z,1.00
2023-03-07T11:09:49.573Z,1.00
2023-03-07T11:14:54.867Z,1.50
2023-03-07T11:19:58.601Z,2.00
2023-03-07T11:25:07.580Z,3.00
2023-03-07T11:30:25.044Z,2.00
2023-03-07T11:35:47.326Z,1.50
2023-03-07T11:40:57.724Z,1.25
2023-03-07T11:46:08.196Z,2.00
2023-03-07T11:51:31.760Z,1.00
2023-03-07T11:56:40.638Z,2.50
2023-03-07T12:01:52.504Z,1.00
2023-03-07T12:07:12.116Z,1.00
2023-03-07T12:12:30.268Z,1.00
2023-03-07T12:17:47.750Z,0.75
2023-03-07T12:23:02.267Z,1.50
2023-03-07T12:28:18.723Z,3.00
2023-03-07T12:33:27.713Z,1.75
2023-03-07T12:38:39.829Z,2.25
2023-03-07T12:43:47.948Z,1.50
2023-03-07T12:48:59.908Z,2.00
2023-03-07T12:54:11.322Z,1.00
2023-03-07T12:59:16.952Z,3.75
2023-03-07T13:04:26.016Z,1.50
2023-03-07T13:09:32.247Z,2.75
2023-03-07T13:14:46.926Z,1.25
2023-03-07T13:19:54.977Z,3.00
2023-03-07T13:24:58.801Z,2.75
2023-03-07T13:30:19.872Z,50.80
2023-03-07T13:35:54.424Z,92.40
2023-03-07T13:40:58.907Z,138.20
2023-03-07T13:46:04.442Z,226.67
2023-03-07T13:51:09.188Z,208.33
2023-03-07T13:56:26.236Z,240.00
2023-03-07T14:01:36.361Z,243.00
2023-03-07T14:06:42.614Z,239.33
2023-03-07T14:11:54.438Z,230.00
2023-03-07T14:17:09.383Z,203.50
2023-03-07T14:22:23.275Z,191.20
2023-03-07T14:27:26.160Z,171.80
2023-03-07T14:32:32.137Z,166.40
2023-03-07T14:37:34.877Z,153.20
2023-03-07T14:42:46.110Z,148.00
2023-03-07T14:48:13.139Z,125.60
2023-03-07T14:53:21.181Z,122.00
2023-03-07T14:58:27.197Z,110.00
2023-03-07T15:03:32.544Z,106.20
2023-03-07T15:08:38.349Z,106.20
2023-03-07T15:13:45.807Z,102.20
2023-03-07T15:18:54.404Z,111.60
2023-03-07T15:23:59.224Z,109.20
2023-03-07T15:29:06.302Z,114.80
2023-03-07T15:34:24.380Z,106.20
2023-03-07T15:39:34.533Z,105.20
2023-03-07T15:44:38.173Z,105.40
2023-03-07T15:49:45.994Z,106.40
2023-03-07T15:54:52.571Z,103.40
2023-03-07T15:59:59.200Z,102.80
2023-03-07T16:05:04.803Z,100.80
2023-03-07T16:10:08.170Z,94.00
2023-03-07T16:15:14.644Z,98.00
2023-03-07T16:20:21.251Z,94.00
2023-03-07T16:25:27.453Z,99.80
2023-03-07T16:30:30.512Z,91.40
2023-03-07T16:35:35.381Z,94.80
2023-03-07T16:40:42.182Z,92.20
2023-03-07T16:45:44.971Z,91.40
2023-03-07T16:50:49.033Z,88.80
2023-03-07T16:55:52.305Z,90.00
2023-03-07T17:00:55.903Z,87.00
2023-03-07T17:06:00.408Z,88.60
2023-03-07T17:11:03.549Z,86.80
2023-03-07T17:16:06.633Z,102.00
2023-03-07T17:21:13.778Z,96.20
2023-03-07T17:26:29.686Z,93.40
2023-03-07T17:31:32.507Z,97.00
2023-03-07T17:36:36.620Z,87.80
2023-03-07T17:41:39.394Z,92.00
2023-03-07T17:46:42.135Z,85.40
2023-03-07T17:51:46.687Z,73.80
2023-03-07T17:56:49.373Z,69.20
2023-03-07T18:01:52.145Z,59.00
2023-03-07T18:06:56.322Z,61.20
2023-03-07T18:11:59.145Z,55.40
2023-03-07T18:17:01.847Z,53.40
2023-03-07T18:22:06.261Z,58.40
2023-03-07T18:27:10.052Z,49.80
2023-03-07T18:32:13.081Z,49.80
2023-03-07T18:37:17.384Z,49.00
2023-03-07T18:42:20.094Z,46.80
2023-03-07T18:47:22.756Z,47.80
2023-03-07T18:52:26.800Z,46.00
2023-03-07T18:57:29.486Z,47.60
2023-03-07T19:02:32.408Z,43.60
2023-03-07T19:07:36.572Z,45.60
2023-03-07T19:12:39.355Z,44.80
2023-03-07T19:17:42.462Z,44.60
2023-03-07T19:22:46.491Z,44.00
2023-03-07T19:27:49.330Z,44.00
2023-03-07T19:32:52.025Z,42.20
2023-03-07T19:37:56.082Z,41.20
2023-03-07T19:42:58.983Z,41.60
2023-03-07T19:48:01.857Z,38.60
2023-03-07T19:53:06.097Z,38.80
2023-03-07T19:58:08.895Z,37.80
2023-03-07T20:03:13.987Z,37.40
2023-03-07T20:08:18.041Z,37.40
2023-03-07T20:13:21.015Z,36.60
2023-03-07T20:18:23.657Z,35.60
2023-03-07T20:23:27.679Z,37.00
2023-03-07T20:28:30.359Z,37.20
2023-03-07T20:33:33.072Z,34.80
2023-03-07T20:38:38.350Z,36.60
2023-03-07T20:43:41.689Z,37.00
2023-03-07T20:48:44.826Z,33.80
2023-03-07T20:53:51.019Z,32.20
2023-03-07T20:58:54.786Z,33.60
2023-03-07T21:04:03.871Z,31.00
2023-03-07T21:09:10.095Z,31.20
2023-03-07T21:14:13.284Z,31.40
2023-03-07T21:19:16.324Z,30.20
2023-03-07T21:24:20.393Z,31.00
2023-03-07T21:29:23.049Z,30.60
2023-03-07T21:34:25.928Z,29.00
2023-03-07T21:39:29.986Z,31.60
2023-03-07T21:44:33.053Z,30.40
2023-03-07T21:49:35.836Z,30.20
2023-03-07T21:54:39.881Z,29.40
2023-03-07T21:59:42.685Z,29.60
2023-03-07T22:04:45.335Z,27.50
2023-03-07T22:09:49.411Z,27.60
2023-03-07T22:14:52.140Z,28.00
2023-03-07T22:19:54.847Z,23.80
2023-03-07T22:24:58.908Z,25.00
2023-03-07T22:30:01.614Z,24.25
2023-03-07T22:35:04.924Z,25.50
2023-03-07T22:40:11.482Z,22.40
2023-03-07T22:45:14.594Z,28.40
2023-03-07T22:50:17.955Z,22.50
2023-03-07T22:55:21.994Z,23.60
2023-03-07T23:00:25.510Z,25.40
2023-03-07T23:05:28.349Z,25.25
2023-03-07T23:10:32.593Z,23.00
2023-03-07T23:15:35.376Z,23.50
2023-03-07T23:20:38.799Z,25.00
2023-03-07T23:25:43.530Z,24.50
2023-03-07T23:30:46.311Z,22.50
2023-03-07T23:35:49.107Z,21.50
2023-03-07T23:40:53.340Z,22.75
2023-03-07T23:45:56.274Z,17.25
2023-03-07T23:50:59.067Z,22.50
2023-03-07T23:56:05.911Z,18.50
